Time;durP1;ratioP1;P1;durP2;ratioP2;P2;SDS_P1;SDS_P2;PMS_P1;PMS_P2;Temp;Humidity;BMP_temperature;BMP_pressure;BME280_temperature;BME280_humidity;BME280_pressure;Samples;Min_cycle;Max_cycle;Signal;HPM_P1;HPM_P2
2022/11/25 00:01:08;;;;;;;11.77;3.30;;;6.80;99.90;;;;;;6122148;23;20033;-86
2022/11/25 00:03:34;;;;;;;10.95;3.15;;;8.00;99.90;;;;;;6094489;23;20025;-84
2022/11/25 00:06:11;;;;;;;12.00;3.15;;;8.00;99.90;;;;;;6095538;23;20021;-85
2022/11/25 00:08:38;;;;;;;7.25;2.50;;;8.00;99.90;;;;;;6094108;23;20033;-84
2022/11/25 00:11:05;;;;;;;13.55;3.22;;;8.00;99.90;;;;;;6120422;23;20890;-87
2022/11/25 00:13:32;;;;;;;9.73;3.03;;;8.00;99.90;;;;;;6124397;23;20021;-85
2022/11/25 00:16:09;;;;;;;8.85;2.90;;;6.40;99.90;;;;;;6097186;23;20021;-87
2022/11/25 00:18:35;;;;;;;12.55;2.90;;;8.00;99.90;;;;;;6119454;23;20446;-85
2022/11/25 00:21:09;;;;;;;10.23;2.80;;;8.00;99.90;;;;;;6095710;23;20027;-84
2022/11/25 00:23:36;;;;;;;9.38;2.80;;;8.00;99.90;;;;;;6096488;23;20351;-85
2022/11/25 00:26:13;;;;;;;15.32;2.97;;;8.00;99.90;;;;;;6073840;23;20032;-85
2022/11/25 00:28:41;;;;;;;12.57;2.78;;;7.50;99.90;;;;;;6095850;23;20036;-86
2022/11/25 00:31:18;;;;;;;10.73;2.72;;;8.20;99.90;;;;;;6095599;23;20128;-85
2022/11/25 00:33:45;;;;;;;14.18;2.90;;;8.00;99.90;;;;;;6120228;23;20027;-85
2022/11/25 00:36:29;;;;;;;13.55;3.13;;;8.00;99.90;;;;;;6121095;23;20014;-85
2022/11/25 00:38:57;;;;;;;10.82;2.58;;;8.10;99.90;;;;;;6095951;23;20025;-84
2022/11/25 00:47:00;;;;;;;11.52;3.08;;;8.10;99.90;;;;;;6145543;23;20345;-86
2022/11/25 00:49:25;;;;;;;9.48;2.85;;;8.00;99.90;;;;;;6144921;23;20119;-87
2022/11/25 00:51:51;;;;;;;12.32;2.88;;;8.00;99.90;;;;;;6095869;23;20062;-85
2022/11/25 00:54:17;;;;;;;17.60;3.75;;;7.60;99.90;;;;;;6096342;23;20132;-86
2022/11/25 00:56:43;;;;;;;12.35;2.70;;;8.00;99.90;;;;;;6119443;23;20263;-86
2022/11/25 00:59:09;;;;;;;11.73;3.20;;;8.00;99.90;;;;;;6145352;23;20394;-85
2022/11/25 01:01:35;;;;;;;14.32;3.20;;;8.00;99.90;;;;;;6118946;23;20437;-85
2022/11/25 01:04:01;;;;;;;14.27;3.28;;;8.00;99.90;;;;;;6122220;23;20539;-85
2022/11/25 01:06:27;;;;;;;17.02;3.33;;;8.00;99.90;;;;;;6121732;23;20052;-87
2022/11/25 01:08:53;;;;;;;12.65;3.13;;;8.10;99.90;;;;;;6073767;23;20017;-84
2022/11/25 01:11:21;;;;;;;10.02;2.83;;;8.00;99.90;;;;;;6120955;23;20095;-85
2022/11/25 01:13:47;;;;;;;7.45;2.95;;;8.00;99.90;;;;;;6122593;23;20112;-85
2022/11/25 01:16:19;;;;;;;17.30;3.42;;;8.20;99.90;;;;;;6122417;23;20499;-84
2022/11/25 01:18:45;;;;;;;16.55;3.22;;;8.00;99.90;;;;;;6121845;23;20033;-84
2022/11/25 01:21:14;;;;;;;12.50;2.92;;;8.00;99.90;;;;;;6122755;23;20021;-84
2022/11/25 01:23:41;;;;;;;9.68;3.05;;;8.70;99.90;;;;;;6122281;23;20021;-84
2022/11/25 01:26:11;;;;;;;11.43;3.25;;;8.50;99.90;;;;;;6132073;23;20036;-84
2022/11/25 01:28:37;;;;;;;11.07;2.97;;;8.00;99.90;;;;;;6124466;23;20043;-84
2022/11/25 01:31:10;;;;;;;16.15;3.47;;;8.00;99.90;;;;;;6118618;23;20025;-84
2022/11/25 01:33:37;;;;;;;14.48;3.38;;;8.00;99.90;;;;;;6118369;23;20040;-84
2022/11/25 01:36:13;;;;;;;15.27;3.13;;;8.00;99.90;;;;;;6131870;23;20021;-82
2022/11/25 01:38:39;;;;;;;13.45;3.15;;;8.00;99.90;;;;;;6132123;23;20014;-84
2022/11/25 01:41:07;;;;;;;12.02;3.17;;;8.10;99.90;;;;;;6120086;23;20021;-86
2022/11/25 01:43:34;;;;;;;12.75;3.08;;;8.00;99.90;;;;;;6120829;23;20032;-86
2022/11/25 01:46:05;;;;;;;13.85;3.15;;;8.00;99.90;;;;;;6069915;23;20021;-84
2022/11/25 01:48:40;;;;;;;12.10;2.95;;;8.10;99.90;;;;;;6093723;23;20032;-85
2022/11/25 01:51:31;;;;;;;10.57;3.22;;;8.10;99.90;;;;;;6096362;23;20025;-86
2022/11/25 01:54:00;;;;;;;14.45;3.30;;;8.10;99.90;;;;;;6096580;23;20017;-86
2022/11/25 01:56:29;;;;;;;11.68;3.35;;;8.10;99.90;;;;;;6096012;23;20101;-84
2022/11/25 01:58:55;;;;;;;11.82;2.92;;;8.10;99.90;;;;;;6097097;23;20497;-85
2022/11/25 02:01:21;;;;;;;15.50;3.90;;;8.20;99.90;;;;;;6096473;23;20025;-84
2022/11/25 02:03:51;;;;;;;9.38;2.88;;;8.10;99.90;;;;;;6069782;23;20018;-85
2022/11/25 02:06:26;;;;;;;12.77;3.35;;;8.10;99.90;;;;;;6093954;23;20088;-86
2022/11/25 02:08:56;;;;;;;13.50;3.65;;;8.10;99.90;;;;;;6119274;23;20021;-85
2022/11/25 02:11:25;;;;;;;18.00;3.55;;;8.10;99.90;;;;;;6096048;23;20398;-86
2022/11/25 02:13:52;;;;;;;12.25;2.70;;;8.10;99.90;;;;;;6119587;23;20024;-85
2022/11/25 02:16:18;;;;;;;12.05;3.20;;;8.10;99.90;;;;;;6094973;23;20096;-85
2022/11/25 02:18:44;;;;;;;15.45;3.55;;;8.10;99.90;;;;;;6097398;23;20025;-84
2022/11/25 02:21:12;;;;;;;13.60;3.10;;;7.60;99.90;;;;;;6049739;23;20402;-86
2022/11/25 02:24:07;;;;;;;13.20;4.00;;;8.10;99.90;;;;;;6096798;23;20090;-86
2022/11/25 02:26:33;;;;;;;16.38;4.18;;;8.10;99.90;;;;;;6094143;23;20021;-86
2022/11/25 02:28:59;;;;;;;14.48;3.17;;;8.10;99.90;;;;;;6144638;23;20076;-87
2022/11/25 02:31:25;;;;;;;13.90;3.55;;;8.20;99.90;;;;;;6048581;23;20022;-85
2022/11/25 02:33:51;;;;;;;10.80;3.85;;;8.20;99.90;;;;;;6095244;23;20151;-87
2022/11/25 02:36:20;;;;;;;10.98;3.50;;;8.10;99.90;;;;;;6072138;23;20017;-86
2022/11/25 02:38:57;;;;;;;13.65;3.35;;;8.10;99.90;;;;;;6144067;23;20025;-86
2022/11/25 02:41:38;;;;;;;12.57;3.72;;;8.20;99.90;;;;;;6121228;23;20021;-85
2022/11/25 02:44:04;;;;;;;8.48;3.15;;;8.10;99.90;;;;;;6146373;23;20442;-85
2022/11/25 02:46:30;;;;;;;13.93;3.78;;;9.50;99.90;;;;;;6121308;23;20508;-85
2022/11/25 02:48:58;;;;;;;13.73;3.08;;;8.20;99.90;;;;;;6122167;23;20080;-86
2022/11/25 02:51:27;;;;;;;10.52;3.47;;;8.60;99.90;;;;;;6122501;23;20068;-86
2022/11/25 02:53:53;;;;;;;14.88;4.68;;;8.20;99.90;;;;;;6122538;23;20819;-86
2022/11/25 02:56:21;;;;;;;9.55;3.10;;;8.20;99.90;;;;;;6147973;23;20049;-87
2022/11/25 02:58:47;;;;;;;11.45;3.40;;;8.20;99.90;;;;;;6125043;23;20028;-86
2022/11/25 03:01:13;;;;;;;13.35;3.28;;;8.60;99.90;;;;;;6148616;23;20462;-87
2022/11/25 03:03:39;;;;;;;12.32;2.80;;;8.20;99.90;;;;;;6097195;23;20025;-88
2022/11/25 03:06:05;;;;;;;10.85;2.97;;;8.20;99.90;;;;;;6098188;23;20468;-86
2022/11/25 03:08:31;;;;;;;9.25;3.10;;;8.20;99.90;;;;;;6147238;23;20017;-85
2022/11/25 03:10:56;;;;;;;10.32;3.28;;;8.20;99.90;;;;;;6073115;23;20104;-84
2022/11/25 03:13:22;;;;;;;14.73;2.80;;;8.90;99.90;;;;;;6121376;23;20033;-85
2022/11/25 03:15:48;;;;;;;13.10;3.08;;;8.30;99.90;;;;;;6120501;23;20022;-85
2022/11/25 03:18:14;;;;;;;9.35;2.72;;;8.10;99.90;;;;;;6147183;23;20041;-87
2022/11/25 03:20:40;;;;;;;11.48;2.80;;;8.20;99.90;;;;;;6120724;23;20025;-87
2022/11/25 03:23:06;;;;;;;9.85;2.40;;;8.20;99.90;;;;;;6120765;23;20354;-85
2022/11/25 03:25:33;;;;;;;11.73;2.60;;;8.10;99.90;;;;;;6146521;23;20025;-86
2022/11/25 03:27:59;;;;;;;9.40;2.70;;;8.10;99.90;;;;;;6146260;23;20051;-86
2022/11/25 03:30:27;;;;;;;10.43;2.30;;;8.30;99.90;;;;;;6122131;23;20117;-86
2022/11/25 03:32:52;;;;;;;8.93;2.67;;;8.30;99.90;;;;;;6124109;23;20033;-86
2022/11/25 03:35:18;;;;;;;9.70;2.95;;;8.10;99.90;;;;;;6136617;23;20017;-86
2022/11/25 03:37:44;;;;;;;11.20;3.08;;;8.10;99.90;;;;;;6139297;23;20021;-85
2022/11/25 03:40:12;;;;;;;10.55;3.38;;;8.10;99.90;;;;;;6131288;23;20476;-86
2022/11/25 03:42:38;;;;;;;9.02;2.85;;;8.10;99.90;;;;;;6123311;23;20088;-85
2022/11/25 03:45:05;;;;;;;9.60;3.33;;;8.10;99.90;;;;;;6110338;23;20310;-85
2022/11/25 03:47:31;;;;;;;9.82;3.53;;;8.10;99.90;;;;;;6140856;23;20053;-86
2022/11/25 03:49:57;;;;;;;8.77;2.97;;;8.00;99.90;;;;;;6141929;23;20021;-86
2022/11/25 03:52:23;;;;;;;10.20;3.50;;;8.10;99.90;;;;;;6121805;23;20018;-86
2022/11/25 03:54:49;;;;;;;8.93;3.38;;;8.10;99.90;;;;;;6095291;23;20022;-87
2022/11/25 03:57:15;;;;;;;9.73;3.13;;;8.10;99.90;;;;;;6073169;23;20022;-84
2022/11/25 03:59:41;;;;;;;10.70;3.50;;;8.10;99.90;;;;;;6096420;23;20044;-85
2022/11/25 04:02:06;;;;;;;15.40;3.67;;;8.10;99.90;;;;;;6120764;23;20021;-85
2022/11/25 04:04:32;;;;;;;12.05;4.05;;;8.10;99.90;;;;;;6121263;23;20028;-85
2022/11/25 04:06:58;;;;;;;9.70;3.88;;;8.10;99.90;;;;;;6120271;23;20017;-86
2022/11/25 04:09:24;;;;;;;11.18;4.00;;;8.10;99.90;;;;;;6096809;23;20044;-85
2022/11/25 04:14:35;;;;;;;13.48;3.90;;;8.20;99.90;;;;;;6146156;23;20021;-85
2022/11/25 04:17:01;;;;;;;9.02;4.32;;;8.10;99.90;;;;;;6120850;23;20026;-87
2022/11/25 04:19:27;;;;;;;14.20;4.90;;;8.20;99.90;;;;;;6096553;23;20138;-84
2022/11/25 04:21:53;;;;;;;13.60;4.65;;;8.20;99.90;;;;;;6121539;23;20017;-87
2022/11/25 04:24:19;;;;;;;13.20;4.85;;;9.50;99.90;;;;;;6122659;23;20060;-85
2022/11/25 04:26:45;;;;;;;12.20;4.75;;;8.20;99.90;;;;;;6120279;23;20021;-85
2022/11/25 04:29:11;;;;;;;11.63;5.30;;;8.80;99.90;;;;;;6098381;23;20025;-87
2022/11/25 04:31:37;;;;;;;15.93;5.40;;;7.70;99.90;;;;;;6145294;23;20527;-84
2022/11/25 04:34:03;;;;;;;11.38;4.38;;;8.90;99.90;;;;;;6073532;23;20100;-85
2022/11/25 04:36:30;;;;;;;14.20;5.30;;;8.20;99.90;;;;;;6148164;23;20013;-86
2022/11/25 04:38:56;;;;;;;12.77;5.10;;;8.40;99.90;;;;;;6123542;23;20021;-85
2022/11/25 04:41:22;;;;;;;15.90;5.88;;;8.20;99.90;;;;;;6122008;23;20132;-84
2022/11/25 04:43:47;;;;;;;14.40;5.07;;;8.20;99.90;;;;;;6073168;23;20334;-86
2022/11/25 04:46:23;;;;;;;15.43;5.60;;;8.40;99.90;;;;;;6073888;23;20018;-86
2022/11/25 04:48:49;;;;;;;12.25;5.57;;;8.20;99.90;;;;;;6096365;23;20025;-87
2022/11/25 04:51:15;;;;;;;12.40;5.47;;;8.10;99.90;;;;;;6097298;23;20084;-84
2022/11/25 04:53:42;;;;;;;12.32;5.25;;;8.10;99.90;;;;;;6096394;23;20144;-84
2022/11/25 04:56:10;;;;;;;11.43;5.72;;;8.20;99.90;;;;;;6096858;23;20096;-86
2022/11/25 05:01:20;;;;;;;12.82;5.25;;;8.20;99.90;;;;;;6100286;23;20025;-84
2022/11/25 05:03:48;;;;;;;14.55;5.13;;;8.20;99.90;;;;;;6103498;23;20017;-84
2022/11/25 05:06:14;;;;;;;13.15;5.45;;;8.10;99.90;;;;;;6102732;23;20342;-84
2022/11/25 05:08:40;;;;;;;12.50;5.43;;;8.30;99.90;;;;;;6079518;23;20032;-84
2022/11/25 05:11:06;;;;;;;13.23;5.07;;;8.20;99.90;;;;;;6101546;23;20053;-85
2022/11/25 05:13:32;;;;;;;13.30;5.22;;;8.30;99.90;;;;;;6125875;23;20393;-85
2022/11/25 05:15:59;;;;;;;12.20;5.50;;;9.70;99.90;;;;;;6073596;23;20064;-85
2022/11/25 05:18:25;;;;;;;11.57;5.32;;;;;;;;;;6122414;23;20335;-87
2022/11/25 05:20:51;;;;;;;11.80;4.72;;;8.30;99.90;;;;;;6075809;23;20021;-86
2022/11/25 05:23:16;;;;;;;12.30;4.82;;;8.20;99.90;;;;;;6073923;23;20032;-84
2022/11/25 05:25:42;;;;;;;13.90;5.40;;;8.30;99.90;;;;;;6074390;23;20334;-84
2022/11/25 05:28:08;;;;;;;15.63;5.03;;;8.40;99.90;;;;;;6099045;23;20100;-86
2022/11/25 05:30:34;;;;;;;12.93;5.25;;;8.40;99.90;;;;;;6073408;23;20492;-86
2022/11/25 05:32:59;;;;;;;16.75;5.88;;;8.30;99.90;;;;;;6053491;23;20396;-86
2022/11/25 05:35:25;;;;;;;14.45;5.20;;;6.80;99.90;;;;;;6099297;23;20013;-87
2022/11/25 05:37:51;;;;;;;16.35;5.45;;;8.90;99.90;;;;;;6097629;23;20028;-86
2022/11/25 05:40:17;;;;;;;19.52;5.82;;;9.20;99.90;;;;;;6098673;23;20463;-87
2022/11/25 05:42:43;;;;;;;15.30;5.20;;;8.20;99.90;;;;;;6109956;23;20017;-87
2022/11/25 05:45:10;;;;;;;14.00;5.95;;;8.20;99.90;;;;;;6148913;23;20033;-86
2022/11/25 05:47:35;;;;;;;18.27;5.68;;;8.20;99.90;;;;;;6155090;23;20021;-86
2022/11/25 05:50:01;;;;;;;13.90;5.35;;;8.20;99.90;;;;;;6140881;23;20077;-86
2022/11/25 05:52:27;;;;;;;17.52;6.35;;;8.20;99.90;;;;;;6156608;23;20018;-86
2022/11/25 05:54:53;;;;;;;14.15;5.63;;;10.00;99.90;;;;;;6075364;23;20480;-86
2022/11/25 05:57:19;;;;;;;15.73;6.25;;;;;;;;;;6152438;23;20073;-85
2022/11/25 05:59:45;;;;;;;17.52;6.07;;;8.10;99.90;;;;;;6138457;23;20010;-84
2022/11/25 06:02:11;;;;;;;12.80;5.57;;;8.60;99.90;;;;;;6124219;23;20019;-85
2022/11/25 06:04:37;;;;;;;14.68;5.57;;;8.30;99.90;;;;;;6126273;23;20457;-87
2022/11/25 06:07:03;;;;;;;12.50;6.50;;;8.00;99.90;;;;;;6073389;23;20029;-86
2022/11/25 06:09:28;;;;;;;15.68;5.25;;;8.00;99.90;;;;;;6097963;23;20033;-85
2022/11/25 06:11:54;;;;;;;10.55;5.13;;;8.00;99.90;;;;;;6120607;23;20389;-86
2022/11/25 06:14:20;;;;;;;13.23;5.13;;;7.80;99.90;;;;;;6097109;23;20100;-85
2022/11/25 06:16:45;;;;;;;13.82;5.18;;;7.80;99.90;;;;;;6073432;23;20189;-84
2022/11/25 06:19:11;;;;;;;12.18;4.82;;;7.80;99.90;;;;;;6073371;23;20021;-86
2022/11/25 06:21:37;;;;;;;11.73;5.15;;;7.70;99.90;;;;;;6097577;23;20492;-85
2022/11/25 06:24:03;;;;;;;12.40;5.03;;;7.80;99.90;;;;;;6120028;23;20025;-86
2022/11/25 06:26:29;;;;;;;13.48;5.15;;;7.70;99.90;;;;;;6073430;23;20438;-84
2022/11/25 06:28:55;;;;;;;14.88;5.00;;;7.90;99.90;;;;;;6095800;23;20027;-85
2022/11/25 06:31:23;;;;;;;11.15;4.97;;;6.90;99.90;;;;;;6119517;23;20022;-85
2022/11/25 06:33:51;;;;;;;9.73;4.10;;;7.70;99.90;;;;;;6120718;23;20021;-84
2022/11/25 06:36:19;;;;;;;12.77;5.15;;;7.60;99.90;;;;;;6097098;23;20096;-86
2022/11/25 06:38:54;;;;;;;19.23;6.40;;;7.50;99.90;;;;;;6121255;23;20358;-86
2022/11/25 06:41:21;;;;;;;15.15;5.40;;;7.60;99.90;;;;;;6145395;23;20018;-88
2022/11/25 06:43:47;;;;;;;11.98;5.60;;;7.60;99.90;;;;;;6117235;23;20070;-88
2022/11/25 06:46:15;;;;;;;16.90;5.40;;;7.70;99.90;;;;;;6121098;23;20018;-87
2022/11/25 06:48:41;;;;;;;11.88;5.40;;;;;;;;;;6121522;23;20025;-86
2022/11/25 06:51:10;;;;;;;15.38;6.03;;;7.60;99.90;;;;;;6120462;23;20033;-86
2022/11/25 06:53:36;;;;;;;12.40;5.65;;;7.60;99.90;;;;;;6119927;23;20025;-85
2022/11/25 06:56:06;;;;;;;13.52;6.07;;;7.50;99.90;;;;;;6122146;23;20022;-88
2022/11/25 06:58:33;;;;;;;12.80;6.22;;;7.50;99.90;;;;;;6122581;23;20028;-86
2022/11/25 07:01:26;;;;;;;11.77;6.15;;;7.50;99.90;;;;;;6121897;23;20057;-87
2022/11/25 07:03:54;;;;;;;18.58;6.53;;;7.60;99.90;;;;;;6123341;23;20033;-84
2022/11/25 07:06:21;;;;;;;12.20;5.50;;;7.50;99.90;;;;;;6121860;23;20104;-86
2022/11/25 07:08:47;;;;;;;17.90;6.78;;;7.50;99.90;;;;;;6122951;23;20028;-81
2022/11/25 07:11:17;;;;;;;16.63;6.22;;;7.80;99.90;;;;;;6098954;23;20025;-86
2022/11/25 07:13:43;;;;;;;14.60;6.18;;;7.30;99.90;;;;;;6122752;23;20026;-85
2022/11/25 07:16:10;;;;;;;12.65;6.40;;;7.50;99.90;;;;;;6149409;23;20064;-85
2022/11/25 07:18:37;;;;;;;14.18;6.05;;;7.40;99.90;;;;;;6122214;23;20024;-84
2022/11/25 07:21:09;;;;;;;13.07;5.40;;;7.50;99.90;;;;;;6096548;23;20021;-85
2022/11/25 07:23:36;;;;;;;14.65;6.55;;;6.40;99.90;;;;;;6120330;23;20026;-86
2022/11/25 07:26:05;;;;;;;18.50;6.55;;;9.60;99.90;;;;;;6121163;23;20017;-85
2022/11/25 07:28:32;;;;;;;14.15;6.45;;;7.50;99.90;;;;;;6122016;23;20021;-86
2022/11/25 07:31:24;;;;;;;13.77;6.70;;;7.50;99.90;;;;;;6123557;23;20056;-86
2022/11/25 07:33:55;;;;;;;14.55;6.60;;;7.60;99.90;;;;;;6110451;23;20039;-85
2022/11/25 07:36:21;;;;;;;14.38;6.45;;;7.40;99.90;;;;;;6123217;23;20154;-85
2022/11/25 07:38:47;;;;;;;11.63;6.22;;;7.30;99.90;;;;;;6124413;23;20437;-85
2022/11/25 07:41:15;;;;;;;13.55;6.57;;;7.40;99.90;;;;;;6123464;23;20100;-85
2022/11/25 07:43:50;;;;;;;13.25;6.40;;;7.30;99.90;;;;;;6147552;23;20025;-85
2022/11/25 07:46:17;;;;;;;13.40;6.15;;;7.30;99.90;;;;;;6147381;23;20066;-86
2022/11/25 07:48:44;;;;;;;12.70;6.50;;;7.50;99.90;;;;;;6125588;23;20017;-87
2022/11/25 07:51:19;;;;;;;14.60;5.93;;;7.30;99.90;;;;;;6128067;23;20060;-85
2022/11/25 07:53:46;;;;;;;11.25;5.63;;;7.40;99.90;;;;;;6129663;23;20026;-84
2022/11/25 07:56:13;;;;;;;12.20;5.78;;;7.20;99.90;;;;;;6128654;23;20043;-85
2022/11/25 07:58:39;;;;;;;13.75;5.75;;;7.20;99.90;;;;;;6175400;23;20023;-84
2022/11/25 08:01:07;;;;;;;9.38;5.85;;;7.30;99.90;;;;;;6118036;23;20022;-86
2022/11/25 08:03:34;;;;;;;14.77;5.60;;;8.30;99.90;;;;;;6126564;23;20088;-85
2022/11/25 08:06:02;;;;;;;13.77;5.40;;;7.30;99.90;;;;;;6130322;23;20014;-86
2022/11/25 08:08:28;;;;;;;10.65;5.25;;;7.30;99.90;;;;;;6136400;23;20019;-86
2022/11/25 08:10:54;;;;;;;12.02;5.55;;;7.20;99.90;;;;;;6119937;23;20083;-84
2022/11/25 08:13:20;;;;;;;9.00;5.03;;;7.30;99.90;;;;;;6112809;23;20029;-86
2022/11/25 08:15:45;;;;;;;9.45;5.30;;;7.40;99.90;;;;;;6098573;23;20018;-82
2022/11/25 08:18:11;;;;;;;12.45;5.90;;;7.30;99.90;;;;;;6122549;23;20021;-82
2022/11/25 08:20:37;;;;;;;10.18;5.00;;;6.00;99.90;;;;;;6093809;23;20034;-83
2022/11/25 08:23:03;;;;;;;11.70;4.80;;;7.00;99.90;;;;;;6046527;23;20026;-84
2022/11/25 08:25:30;;;;;;;10.73;5.13;;;7.40;99.90;;;;;;6071660;23;20018;-83
2022/11/25 08:27:58;;;;;;;12.20;5.20;;;7.60;99.90;;;;;;6070935;23;20397;-84
2022/11/25 08:30:24;;;;;;;11.73;4.90;;;6.50;99.90;;;;;;6119688;23;20493;-83
2022/11/25 08:32:51;;;;;;;12.48;6.70;;;7.50;99.90;;;;;;6093579;23;20058;-84
2022/11/25 08:35:17;;;;;;;12.05;7.05;;;7.90;99.90;;;;;;6094358;23;20022;-87
2022/11/25 08:37:43;;;;;;;15.82;7.07;;;8.30;99.90;;;;;;6071594;23;20026;-85
2022/11/25 08:40:10;;;;;;;13.23;6.93;;;8.80;99.90;;;;;;6094474;23;20018;-83
2022/11/25 08:42:36;;;;;;;14.30;6.47;;;8.50;99.90;;;;;;6093884;23;20362;-86
2022/11/25 08:45:03;;;;;;;12.57;6.60;;;8.70;99.90;;;;;;6070457;23;20026;-86
2022/11/25 08:47:30;;;;;;;12.55;6.00;;;8.70;99.90;;;;;;6069948;23;20088;-85
2022/11/25 08:49:56;;;;;;;11.02;5.95;;;9.00;99.90;;;;;;6070415;23;20057;-85
2022/11/25 08:52:22;;;;;;;10.48;6.10;;;9.50;99.90;;;;;;6117841;23;20064;-84
2022/11/25 08:54:48;;;;;;;12.02;6.15;;;8.70;99.90;;;;;;6118090;23;20537;-84
2022/11/25 08:57:14;;;;;;;12.95;6.00;;;10.20;99.90;;;;;;6092794;23;20021;-84
2022/11/25 08:59:40;;;;;;;8.55;4.72;;;9.00;99.90;;;;;;6094075;23;20097;-84
2022/11/25 09:02:08;;;;;;;9.98;5.05;;;8.90;99.90;;;;;;6068282;23;20022;-86
2022/11/25 09:04:34;;;;;;;9.52;5.15;;;8.90;99.90;;;;;;6117190;23;20014;-84
2022/11/25 09:07:00;;;;;;;11.35;4.93;;;8.90;99.90;;;;;;6093108;23;20127;-83
2022/11/25 09:09:26;;;;;;;10.32;4.88;;;8.90;99.90;;;;;;6069287;23;20021;-91
2022/11/25 09:11:52;;;;;;;11.02;5.38;;;9.00;99.90;;;;;;6093398;23;20029;-83
2022/11/25 09:14:17;;;;;;;9.27;4.53;;;10.20;99.90;;;;;;6117268;23;20029;-84
2022/11/25 09:16:43;;;;;;;7.13;4.25;;;8.80;99.90;;;;;;6069621;23;20022;-85
2022/11/25 09:19:12;;;;;;;9.70;4.95;;;9.00;99.90;;;;;;6071147;23;20014;-85
2022/11/25 09:21:38;;;;;;;9.93;4.57;;;8.90;99.90;;;;;;6070251;23;20508;-85
2022/11/25 09:24:04;;;;;;;12.40;4.20;;;8.90;99.90;;;;;;6047438;23;20026;-84
2022/11/25 09:26:34;;;;;;;13.63;4.60;;;7.70;99.90;;;;;;6120636;23;20018;-85
2022/11/25 09:29:00;;;;;;;9.35;4.22;;;8.70;99.90;;;;;;6120610;23;20022;-84
2022/11/25 09:31:26;;;;;;;12.93;3.85;;;8.90;99.90;;;;;;6144854;23;20018;-85
2022/11/25 09:33:52;;;;;;;7.10;3.97;;;8.70;99.90;;;;;;6120495;23;20073;-85
2022/11/25 09:36:19;;;;;;;9.18;4.05;;;8.90;99.90;;;;;;6069462;23;20158;-85
2022/11/25 09:38:46;;;;;;;10.88;4.30;;;8.70;99.90;;;;;;6092815;23;20022;-85
2022/11/25 09:48:19;;;;;;;10.30;4.22;;;8.80;99.90;;;;;;6119038;23;20022;-86
2022/11/25 09:51:05;;;;;;;9.77;3.97;;;8.80;99.90;;;;;;6144737;23;20075;-85
2022/11/25 09:53:48;;;;;;;10.43;3.90;;;8.90;99.90;;;;;;6143285;23;20512;-84
2022/11/25 09:56:26;;;;;;;11.60;4.35;;;9.00;99.90;;;;;;6094788;23;20472;-85
2022/11/25 09:59:06;;;;;;;12.40;4.30;;;8.90;99.90;;;;;;6096103;23;20018;-86
2022/11/25 10:01:38;;;;;;;10.23;4.20;;;9.00;99.90;;;;;;6095625;23;20426;-84
2022/11/25 10:04:16;;;;;;;9.73;4.47;;;9.30;99.90;;;;;;6120859;23;20620;-85
2022/11/25 10:06:53;;;;;;;10.75;4.20;;;9.10;99.90;;;;;;6098632;23;20219;-86
2022/11/25 10:09:23;;;;;;;9.95;3.78;;;9.40;99.90;;;;;;6107235;23;20032;-85
2022/11/25 10:11:54;;;;;;;13.20;4.88;;;9.40;99.90;;;;;;6149753;23;20126;-84
2022/11/25 10:14:51;;;;;;;11.32;4.28;;;9.30;99.90;;;;;;6115389;23;20081;-84
2022/11/25 10:17:59;;;;;;;11.13;3.72;;;9.40;99.90;;;;;;6095023;23;20080;-86
2022/11/25 10:20:37;;;;;;;12.80;3.72;;;9.40;99.90;;;;;;6122357;23;20033;-87
2022/11/25 10:23:14;;;;;;;9.77;3.60;;;9.40;99.90;;;;;;6103279;23;20028;-86
2022/11/25 10:25:45;;;;;;;14.07;3.60;;;9.40;99.90;;;;;;6099534;23;20018;-85
2022/11/25 10:28:23;;;;;;;10.63;3.70;;;9.40;99.90;;;;;;6093289;23;20018;-85
2022/11/25 10:31:15;;;;;;;14.18;4.00;;;9.50;99.90;;;;;;6118240;23;20021;-84
2022/11/25 10:33:48;;;;;;;6.85;3.00;;;9.40;99.90;;;;;;6092451;23;20053;-84
2022/11/25 10:36:31;;;;;;;7.65;3.25;;;9.50;99.90;;;;;;6119443;23;20022;-85
2022/11/25 10:39:06;;;;;;;12.35;3.28;;;9.70;99.90;;;;;;6096169;23;20022;-87
2022/11/25 10:41:41;;;;;;;8.63;2.80;;;9.60;99.90;;;;;;6092042;23;20026;-84
2022/11/25 10:44:38;;;;;;;8.00;3.72;;;9.60;99.90;;;;;;6092240;23;20262;-84
2022/11/25 10:47:07;;;;;;;12.18;3.00;;;9.60;99.90;;;;;;6072472;23;20026;-81
2022/11/25 10:49:49;;;;;;;9.40;2.85;;;9.60;99.90;;;;;;6138264;23;20021;-85
2022/11/25 10:52:20;;;;;;;8.68;2.63;;;9.30;99.90;;;;;;6086989;23;20343;-84
2022/11/25 10:54:58;;;;;;;9.73;2.38;;;10.60;99.90;;;;;;6090964;23;20021;-84
2022/11/25 10:57:28;;;;;;;14.52;2.65;;;9.70;99.90;;;;;;6113380;23;20516;-84
2022/11/25 10:59:59;;;;;;;9.25;3.08;;;9.80;99.90;;;;;;6113359;23;20018;-84
2022/11/25 11:02:28;;;;;;;10.20;2.53;;;9.80;99.90;;;;;;6087157;23;20026;-86
2022/11/25 11:05:22;;;;;;;13.73;2.88;;;9.80;99.90;;;;;;6091831;23;20450;-86
2022/11/25 11:08:08;;;;;;;11.25;2.55;;;9.80;99.90;;;;;;6091830;23;20457;-85
2022/11/25 11:10:34;;;;;;;14.43;2.58;;;9.80;99.90;;;;;;6093833;23;20030;-84
2022/11/25 11:13:19;;;;;;;10.02;2.78;;;9.80;99.90;;;;;;6118855;23;20014;-85
2022/11/25 11:15:46;;;;;;;14.68;2.70;;;9.90;99.90;;;;;;6096099;23;20097;-87
2022/11/25 11:18:38;;;;;;;15.20;2.95;;;9.90;99.90;;;;;;6094600;23;20446;-83
2022/11/25 11:21:20;;;;;;;14.25;3.00;;;10.00;99.90;;;;;;6120478;23;20029;-82
2022/11/25 11:23:52;;;;;;;14.32;3.08;;;10.10;99.90;;;;;;6093570;23;20026;-83
2022/11/25 11:26:44;;;;;;;10.60;2.65;;;10.10;99.90;;;;;;6117243;23;20108;-83
2022/11/25 11:29:15;;;;;;;14.00;2.60;;;10.30;99.90;;;;;;6089331;23;20359;-83
2022/11/25 11:31:49;;;;;;;13.80;2.65;;;10.20;99.90;;;;;;6092281;23;20033;-83
2022/11/25 11:34:42;;;;;;;15.90;2.70;;;10.20;99.90;;;;;;6093242;23;20029;-83
2022/11/25 11:37:26;;;;;;;9.88;2.30;;;10.20;99.90;;;;;;6092563;23;20113;-82
2022/11/25 11:40:07;;;;;;;13.23;2.50;;;10.30;99.90;;;;;;6091788;23;20022;-83
2022/11/25 11:43:20;;;;;;;15.27;2.55;;;11.30;99.90;;;;;;6090415;23;20084;-83
2022/11/25 11:46:10;;;;;;;12.60;2.47;;;10.30;99.90;;;;;;6083943;23;20018;-78
2022/11/25 11:48:44;;;;;;;13.70;2.53;;;11.10;99.90;;;;;;6089845;23;20493;-83
2022/11/25 11:51:27;;;;;;;13.80;2.80;;;10.40;99.90;;;;;;6092385;23;20417;-83
2022/11/25 11:54:11;;;;;;;10.77;2.67;;;8.60;99.90;;;;;;6091639;23;20092;-81
2022/11/25 11:56:43;;;;;;;14.68;2.35;;;10.30;99.90;;;;;;6091924;23;20014;-83
2022/11/25 11:59:36;;;;;;;12.10;2.45;;;10.30;99.90;;;;;;6093916;23;20361;-83
2022/11/25 12:02:14;;;;;;;11.20;2.80;;;10.80;99.90;;;;;;6097744;23;20353;-83
2022/11/25 12:04:45;;;;;;;10.98;2.75;;;10.40;99.90;;;;;;6094479;23;20026;-84
2022/11/25 12:07:40;;;;;;;10.30;2.17;;;10.50;99.90;;;;;;6094205;23;20024;-83
2022/11/25 12:10:31;;;;;;;12.10;2.47;;;11.50;99.90;;;;;;6142561;23;20033;-83
2022/11/25 12:13:23;;;;;;;15.43;3.00;;;10.70;99.90;;;;;;6092233;23;20026;-81
2022/11/25 12:15:58;;;;;;;10.50;2.38;;;10.60;99.90;;;;;;6065834;23;20018;-81
2022/11/25 12:18:37;;;;;;;11.15;2.67;;;10.80;99.90;;;;;;6110063;23;20022;-82
2022/11/25 12:21:07;;;;;;;14.77;2.92;;;10.50;99.90;;;;;;6091305;23;20033;-82
2022/11/25 12:24:21;;;;;;;14.10;2.22;;;10.60;99.90;;;;;;6086558;23;20098;-82
2022/11/25 12:26:56;;;;;;;12.50;2.63;;;12.10;99.90;;;;;;6016184;23;20038;-81
2022/11/25 12:29:32;;;;;;;16.08;2.42;;;10.70;99.90;;;;;;6122223;23;20092;-81
2022/11/25 12:32:17;;;;;;;;;;;10.60;99.90;;;;;;6116818;23;20509;-81
2022/11/25 12:34:52;;;;;;;18.67;2.70;;;10.70;99.90;;;;;;6141090;23;19999;-81
2022/11/25 12:37:31;;;;;;;11.90;2.25;;;10.60;99.90;;;;;;6092150;23;20029;-82
2022/11/25 12:40:10;;;;;;;14.77;2.63;;;10.70;99.90;;;;;;6091568;23;20025;-81
2022/11/25 12:42:39;;;;;;;12.85;3.30;;;10.70;99.90;;;;;;6086422;23;20025;-81
2022/11/25 12:45:24;;;;;;;14.55;2.80;;;10.80;99.90;;;;;;6115704;23;20049;-81
2022/11/25 12:47:51;;;;;;;14.45;2.58;;;10.80;99.90;;;;;;6113522;23;20028;-80
2022/11/25 12:50:28;;;;;;;14.55;2.55;;;10.80;99.90;;;;;;6090353;23;20650;-80
2022/11/25 12:53:26;;;;;;;14.15;2.72;;;10.80;99.90;;;;;;6137554;23;20454;-81
2022/11/25 13:00:25;;;;;;;14.68;2.78;;;10.80;99.90;;;;;;6029327;23;20027;-81
2022/11/25 13:03:03;;;;;;;14.07;2.90;;;10.70;99.90;;;;;;6089183;23;20441;-81
2022/11/25 13:06:01;;;;;;;13.55;2.75;;;10.70;99.90;;;;;;6088597;23;20022;-81
2022/11/25 13:08:54;;;;;;;12.18;3.00;;;10.70;99.90;;;;;;6054588;23;20604;-81
2022/11/25 13:11:29;;;;;;;11.98;2.35;;;9.10;99.90;;;;;;6136908;23;20029;-82
2022/11/25 13:14:16;;;;;;;14.85;3.20;;;10.60;99.90;;;;;;6136210;23;20022;-82
2022/11/25 13:16:45;;;;;;;10.95;2.72;;;10.70;99.90;;;;;;6088252;23;20101;-81
2022/11/25 13:19:15;;;;;;;12.98;2.35;;;10.50;99.90;;;;;;6088334;23;20057;-81
2022/11/25 13:21:58;;;;;;;18.13;2.88;;;10.60;99.90;;;;;;6087690;23;20449;-82
2022/11/25 13:24:40;;;;;;;12.27;2.30;;;10.50;99.90;;;;;;6111475;23;20772;-81
2022/11/25 13:27:37;;;;;;;13.18;2.67;;;10.50;99.90;;;;;;6064459;23;20032;-81
2022/11/25 13:30:03;;;;;;;15.32;2.70;;;10.50;99.90;;;;;;6070439;23;20022;-81